Time;durP1;ratioP1;P1;durP2;ratioP2;P2;SDS_P1;SDS_P2;PMS_P1;PMS_P2;Temp;Humidity;BMP_temperature;BMP_pressure;BME280_temperature;BME280_humidity;BME280_pressure;Samples;Min_cycle;Max_cycle;Signal;HPM_P1;HPM_P2
2021/01/17 00:00:13;;;;;;;60.28;27.13;;;0.30;99.90;;;;;;4955640;29;20428;-90
2021/01/17 00:02:43;;;;;;;57.63;28.65;;;0.20;99.90;;;;;;4957173;29;20400;-92
2021/01/17 00:05:10;;;;;;;51.10;25.73;;;0.20;99.90;;;;;;4952956;28;20046;-93
2021/01/17 00:07:36;;;;;;;54.40;26.80;;;0.20;99.90;;;;;;4940669;29;20047;-92
2021/01/17 00:10:16;;;;;;;55.88;27.58;;;0.20;99.90;;;;;;4940718;29;20048;-92
2021/01/17 00:12:45;;;;;;;63.92;28.52;;;0.20;99.90;;;;;;4940699;29;20054;-94
2021/01/17 00:15:12;;;;;;;54.15;28.35;;;0.20;99.90;;;;;;4958149;29;20105;-93
2021/01/17 00:17:38;;;;;;;57.13;27.77;;;0.20;99.90;;;;;;4957081;29;20098;-93
2021/01/17 00:20:12;;;;;;;62.20;29.98;;;0.20;99.90;;;;;;4957033;29;20050;-93
2021/01/17 00:22:38;;;;;;;55.03;28.42;;;0.20;99.90;;;;;;4956176;29;20043;-93
2021/01/17 00:25:06;;;;;;;56.15;28.85;;;0.10;99.90;;;;;;4955824;29;20491;-92
2021/01/17 00:27:32;;;;;;;53.30;27.40;;;0.10;99.90;;;;;;4940650;29;20051;-93
2021/01/17 00:29:58;;;;;;;55.95;28.13;;;0.10;99.90;;;;;;4942173;29;20086;-93
2021/01/17 00:32:24;;;;;;;58.95;29.52;;;0.10;99.90;;;;;;4956639;29;20047;-93
2021/01/17 00:34:50;;;;;;;62.72;30.42;;;0.10;99.90;;;;;;4939176;29;20070;-93
2021/01/17 00:37:19;;;;;;;65.88;30.67;;;0.00;99.90;;;;;;4924085;29;20066;-93
2021/01/17 00:39:46;;;;;;;48.13;21.88;;;0.00;99.90;;;;;;4956879;28;20047;-94
2021/01/17 00:42:13;;;;;;;57.25;28.38;;;0.10;99.90;;;;;;4956088;29;20058;-93
2021/01/17 00:44:39;;;;;;;50.35;25.33;;;0.10;99.90;;;;;;4924403;29;20379;-93
2021/01/17 00:47:05;;;;;;;51.45;27.23;;;0.10;99.90;;;;;;4923997;29;20053;-90
2021/01/17 00:49:32;;;;;;;54.22;27.35;;;0.00;99.90;;;;;;4955034;29;20047;-90
2021/01/17 00:51:58;;;;;;;59.15;28.52;;;0.00;99.90;;;;;;4955110;28;20050;-93
2021/01/17 00:54:24;;;;;;;50.72;27.33;;;-0.10;99.90;;;;;;4924331;29;20517;-92
2021/01/17 00:56:50;;;;;;;57.30;27.48;;;0.00;99.90;;;;;;4956336;28;20066;-92
2021/01/17 00:59:16;;;;;;;57.65;29.27;;;0.00;99.90;;;;;;4955491;28;20075;-92
2021/01/17 01:01:46;;;;;;;60.15;29.38;;;0.00;99.90;;;;;;4935628;29;20106;-92
2021/01/17 01:04:16;;;;;;;56.55;27.45;;;0.00;99.90;;;;;;4964544;28;20565;-92
2021/01/17 01:06:43;;;;;;;;;;;0.00;99.90;;;;;;4955636;28;20039;-91
2021/01/17 01:09:16;;;;;;;48.88;24.13;;;0.00;99.90;;;;;;4955514;29;19918;-92
2021/01/17 01:11:42;;;;;;;54.72;26.63;;;-0.10;99.90;;;;;;4939334;29;20051;-93
2021/01/17 01:14:09;;;;;;;53.20;27.45;;;-0.10;99.90;;;;;;4954809;29;20043;-92
2021/01/17 01:16:35;;;;;;;56.83;28.50;;;-0.10;99.90;;;;;;4938519;29;20086;-92
2021/01/17 01:19:01;;;;;;;55.13;26.65;;;-0.20;99.90;;;;;;4938262;29;20078;-92
2021/01/17 01:21:33;;;;;;;52.00;26.15;;;0.00;99.90;;;;;;4954284;29;20070;-92
2021/01/17 01:23:59;;;;;;;54.65;25.63;;;0.10;99.90;;;;;;4954002;29;20516;-92
2021/01/17 01:26:25;;;;;;;53.95;27.40;;;0.00;99.90;;;;;;4955251;28;20102;-92
2021/01/17 01:28:54;;;;;;;48.88;23.15;;;-0.10;99.90;;;;;;4945802;29;20048;-91
2021/01/17 01:31:24;;;;;;;50.83;27.13;;;0.00;99.90;;;;;;4949057;29;20039;-92
2021/01/17 01:33:51;;;;;;;46.90;22.67;;;-0.10;99.90;;;;;;4942543;29;20062;-93
2021/01/17 01:36:18;;;;;;;45.47;23.08;;;-0.10;99.90;;;;;;4922442;29;20365;-92
2021/01/17 01:38:46;;;;;;;57.85;27.85;;;-0.10;99.90;;;;;;4938567;29;20050;-91
2021/01/17 01:41:12;;;;;;;50.90;24.77;;;0.00;99.90;;;;;;4955260;28;20039;-91
2021/01/17 01:43:38;;;;;;;51.72;26.17;;;0.00;99.90;;;;;;4938328;29;20035;-91
2021/01/17 01:46:04;;;;;;;65.50;28.45;;;-0.10;99.90;;;;;;4943864;28;20099;-91
2021/01/17 01:48:32;;;;;;;57.63;28.52;;;-0.10;99.90;;;;;;4938623;29;20059;-92
2021/01/17 01:50:58;;;;;;;51.92;26.70;;;0.00;99.90;;;;;;4937668;29;20044;-92
2021/01/17 01:53:25;;;;;;;51.53;27.67;;;-0.10;99.90;;;;;;4955140;28;20054;-92
2021/01/17 01:55:51;;;;;;;57.15;28.77;;;-0.10;99.90;;;;;;4918934;29;20140;-92
2021/01/17 01:58:21;;;;;;;64.07;29.60;;;-0.10;99.90;;;;;;4944498;29;20490;-91
2021/01/17 02:00:50;;;;;;;56.22;28.83;;;0.00;99.90;;;;;;4949181;28;20039;-91
2021/01/17 02:03:16;;;;;;;50.25;26.05;;;0.00;99.90;;;;;;4934078;29;20405;-91
2021/01/17 02:05:45;;;;;;;47.47;25.00;;;-0.10;99.90;;;;;;4949867;29;20118;-91
2021/01/17 02:08:37;;;;;;;52.80;27.13;;;-0.10;99.90;;;;;;4921432;29;20206;-91
2021/01/17 02:11:13;;;;;;;52.78;25.88;;;0.00;99.90;;;;;;4939052;28;20110;-89
2021/01/17 02:13:40;;;;;;;53.08;27.15;;;-0.10;99.90;;;;;;4949498;29;20460;-89
2021/01/17 02:16:07;;;;;;;50.38;27.33;;;-0.10;99.90;;;;;;4950054;29;20066;-90
2021/01/17 02:18:41;;;;;;;44.28;20.90;;;-0.10;99.90;;;;;;4942742;29;20102;-89
2021/01/17 02:21:08;;;;;;;54.08;28.40;;;-0.10;99.90;;;;;;4951966;28;20050;-90
2021/01/17 02:24:11;;;;;;;46.22;25.05;;;-0.10;99.90;;;;;;4951597;29;20239;-90
2021/01/17 02:26:40;;;;;;;53.22;28.60;;;-0.10;99.90;;;;;;4949192;28;20513;-92
2021/01/17 02:29:08;;;;;;;52.03;27.00;;;0.00;99.90;;;;;;4936819;29;20060;-91
2021/01/17 02:31:37;;;;;;;49.47;26.98;;;0.00;99.90;;;;;;4952888;29;20051;-91
2021/01/17 02:34:09;;;;;;;52.97;27.88;;;0.10;99.90;;;;;;4952618;29;20505;-91
2021/01/17 02:37:01;;;;;;;51.83;26.52;;;0.00;99.90;;;;;;4966005;28;20063;-91
2021/01/17 02:39:51;;;;;;;52.28;27.73;;;0.00;99.90;;;;;;4952564;29;20061;-92
2021/01/17 02:42:17;;;;;;;46.80;26.35;;;0.00;99.90;;;;;;4952695;29;20054;-91
2021/01/17 02:44:43;;;;;;;49.03;26.95;;;0.00;99.90;;;;;;4939415;29;20050;-91
2021/01/17 02:47:11;;;;;;;48.13;26.92;;;0.00;99.90;;;;;;4936376;29;20401;-91
2021/01/17 02:49:37;;;;;;;50.28;27.42;;;0.00;99.90;;;;;;4952615;29;20043;-90
2021/01/17 02:52:06;;;;;;;48.67;26.38;;;0.00;99.90;;;;;;4952599;29;20504;-92
2021/01/17 02:54:39;;;;;;;47.45;25.48;;;0.00;99.90;;;;;;4937187;29;20095;-90
2021/01/17 02:57:11;;;;;;;53.60;27.98;;;0.00;99.90;;;;;;4931227;29;20147;-91
2021/01/17 02:59:43;;;;;;;47.35;25.65;;;0.20;99.90;;;;;;4958043;28;20044;-91
2021/01/17 03:02:12;;;;;;;49.53;26.70;;;0.00;99.90;;;;;;4968067;28;20039;-91
2021/01/17 03:04:47;;;;;;;47.65;26.40;;;0.10;99.90;;;;;;4952197;29;20035;-92
2021/01/17 03:07:14;;;;;;;52.08;29.20;;;0.00;99.90;;;;;;4952546;29;20039;-92
2021/01/17 03:09:45;;;;;;;50.55;28.50;;;0.00;99.90;;;;;;4953496;28;20078;-92
2021/01/17 03:12:10;;;;;;;;;;;0.00;99.90;;;;;;4952643;29;20047;-92
2021/01/17 03:14:38;;;;;;;47.80;26.13;;;0.00;99.90;;;;;;4953333;29;19929;-92
2021/01/17 03:17:05;;;;;;;50.05;27.67;;;0.00;99.90;;;;;;4924695;29;20135;-93
2021/01/17 03:19:31;;;;;;;51.58;27.75;;;0.00;99.90;;;;;;4967239;28;20094;-91
2021/01/17 03:21:57;;;;;;;52.00;28.13;;;0.00;99.90;;;;;;4952303;29;20047;-94
2021/01/17 03:24:23;;;;;;;49.28;26.70;;;0.10;99.90;;;;;;4950508;28;20045;-91
2021/01/17 03:26:49;;;;;;;46.55;25.63;;;0.00;99.90;;;;;;4946680;29;20051;-92
2021/01/17 03:29:15;;;;;;;50.53;27.75;;;0.10;99.90;;;;;;4951889;29;20464;-90
2021/01/17 03:31:41;;;;;;;53.70;28.58;;;0.10;99.90;;;;;;4945788;29;20063;-90
2021/01/17 03:34:07;;;;;;;51.95;27.55;;;0.10;99.90;;;;;;4929417;29;20070;-90
2021/01/17 03:36:33;;;;;;;45.13;23.83;;;0.10;99.90;;;;;;4949998;29;20496;-90
2021/01/17 03:38:59;;;;;;;56.65;28.85;;;0.10;99.90;;;;;;4920422;29;20138;-92
2021/01/17 03:41:25;;;;;;;50.13;26.10;;;0.10;99.90;;;;;;4949273;29;20047;-92
2021/01/17 03:43:51;;;;;;;54.88;28.35;;;0.10;99.90;;;;;;4942349;29;20071;-91
2021/01/17 03:46:18;;;;;;;51.05;26.65;;;0.20;99.90;;;;;;4938237;28;20485;-90
2021/01/17 03:48:44;;;;;;;54.65;29.52;;;0.20;99.90;;;;;;4953194;28;20051;-91
2021/01/17 03:51:09;;;;;;;54.45;27.00;;;0.10;99.90;;;;;;4951544;29;20058;-91
2021/01/17 03:53:35;;;;;;;53.08;28.65;;;0.20;99.90;;;;;;4947904;28;20070;-91
2021/01/17 03:56:01;;;;;;;57.40;30.50;;;0.20;99.90;;;;;;4943221;29;20043;-92
2021/01/17 03:58:27;;;;;;;60.13;29.92;;;0.20;99.90;;;;;;4951786;29;20039;-91
2021/01/17 04:00:53;;;;;;;55.58;27.77;;;0.10;99.90;;;;;;4939718;29;20405;-91
2021/01/17 04:03:18;;;;;;;60.90;29.90;;;0.10;99.90;;;;;;4935416;29;20050;-91
2021/01/17 04:05:44;;;;;;;58.97;31.17;;;0.10;99.90;;;;;;4935992;29;20397;-91
2021/01/17 04:08:10;;;;;;;59.45;31.63;;;0.10;99.90;;;;;;4951175;29;20047;-90
2021/01/17 04:10:36;;;;;;;50.42;27.65;;;0.10;99.90;;;;;;4936021;29;20066;-89
2021/01/17 04:13:01;;;;;;;61.53;30.17;;;0.20;99.90;;;;;;4935695;29;20054;-91
2021/01/17 04:15:27;;;;;;;51.95;27.38;;;0.10;99.90;;;;;;4950738;29;20110;-90
2021/01/17 04:17:53;;;;;;;64.75;31.63;;;0.10;99.90;;;;;;4952689;28;20413;-89
2021/01/17 04:20:19;;;;;;;60.38;30.85;;;0.10;99.90;;;;;;4934525;29;20047;-90
2021/01/17 04:22:44;;;;;;;61.92;29.52;;;0.20;99.90;;;;;;4951166;28;20039;-89
2021/01/17 04:25:10;;;;;;;62.13;29.63;;;0.20;99.90;;;;;;4950670;29;20043;-89
2021/01/17 04:27:36;;;;;;;62.78;29.85;;;0.20;99.90;;;;;;4935136;29;20042;-89
2021/01/17 04:30:04;;;;;;;63.72;30.77;;;0.20;99.90;;;;;;4935532;29;20409;-90
2021/01/17 04:32:30;;;;;;;74.05;32.92;;;0.20;99.90;;;;;;4951268;29;20043;-89
2021/01/17 04:34:56;;;;;;;77.32;32.85;;;0.20;99.90;;;;;;4952002;28;20047;-90
2021/01/17 04:37:23;;;;;;;72.25;32.25;;;0.30;99.90;;;;;;4938293;29;20062;-90
2021/01/17 04:39:49;;;;;;;63.35;30.58;;;0.30;99.90;;;;;;4954969;28;20039;-90
2021/01/17 04:42:20;;;;;;;62.45;31.13;;;0.30;99.90;;;;;;4955532;28;20043;-89
2021/01/17 04:44:51;;;;;;;60.53;29.95;;;0.30;99.90;;;;;;4955037;29;20512;-92
2021/01/17 04:47:21;;;;;;;;;;;0.30;99.90;;;;;;4955597;29;20131;-91
2021/01/17 04:49:52;;;;;;;66.18;31.40;;;0.30;99.90;;;;;;4954904;29;19922;-91
2021/01/17 04:52:21;;;;;;;66.00;32.53;;;0.20;99.90;;;;;;4954980;29;20063;-92
2021/01/17 04:54:47;;;;;;;69.97;31.70;;;0.20;99.90;;;;;;4941804;29;20062;-90
2021/01/17 04:57:23;;;;;;;61.95;31.35;;;0.20;99.90;;;;;;4954486;29;20039;-90
2021/01/17 05:00:06;;;;;;;64.95;30.60;;;0.20;99.90;;;;;;4954892;29;20122;-90
2021/01/17 05:02:43;;;;;;;63.88;31.35;;;0.30;99.90;;;;;;4954788;29;20043;-91
2021/01/17 05:05:15;;;;;;;68.70;30.55;;;0.30;99.90;;;;;;4938321;29;20051;-92
2021/01/17 05:07:48;;;;;;;69.65;32.38;;;0.20;99.90;;;;;;4954657;29;20122;-90
2021/01/17 05:10:32;;;;;;;74.40;33.00;;;0.20;99.90;;;;;;4954306;29;20128;-91
2021/01/17 05:13:08;;;;;;;74.20;33.42;;;0.30;99.90;;;;;;4941917;28;20043;-90
2021/01/17 05:15:40;;;;;;;74.90;33.78;;;0.20;99.90;;;;;;4955057;28;20051;-90
2021/01/17 05:18:06;;;;;;;66.30;31.45;;;0.20;99.90;;;;;;4951060;28;20044;-91
2021/01/17 05:20:32;;;;;;;85.80;32.00;;;0.30;99.90;;;;;;4947379;29;20414;-89
2021/01/17 05:22:58;;;;;;;74.00;33.97;;;0.30;99.90;;;;;;4953935;29;20047;-89
2021/01/17 05:25:28;;;;;;;78.00;34.45;;;0.30;99.90;;;;;;4953789;29;20039;-89
2021/01/17 05:27:55;;;;;;;71.43;32.65;;;0.20;99.90;;;;;;4938464;29;20051;-90
2021/01/17 05:30:21;;;;;;;76.35;33.33;;;0.20;99.90;;;;;;4953655;29;20040;-91
2021/01/17 05:32:52;;;;;;;73.75;33.50;;;0.20;99.90;;;;;;4954333;29;20039;-89
2021/01/17 05:35:19;;;;;;;74.65;33.50;;;0.20;99.90;;;;;;4953417;29;20401;-91
2021/01/17 05:37:50;;;;;;;73.38;34.17;;;0.20;99.90;;;;;;4938297;29;20107;-91
2021/01/17 05:40:17;;;;;;;79.40;33.47;;;0.20;99.90;;;;;;4954816;28;20102;-90
2021/01/17 05:42:45;;;;;;;73.47;32.67;;;0.20;99.90;;;;;;4954203;29;20755;-91
2021/01/17 05:45:19;;;;;;;77.57;35.58;;;0.10;99.90;;;;;;4953611;29;20039;-93
2021/01/17 05:48:08;;;;;;;74.80;31.95;;;0.10;99.90;;;;;;4952994;29;20402;-92
2021/01/17 05:50:54;;;;;;;84.50;35.17;;;0.10;99.90;;;;;;4947727;29;20167;-90
2021/01/17 05:53:25;;;;;;;89.28;34.22;;;0.10;99.90;;;;;;4933797;29;20161;-91
2021/01/17 05:55:51;;;;;;;82.32;34.00;;;0.20;99.90;;;;;;4953750;29;20123;-90
2021/01/17 05:58:23;;;;;;;90.97;35.58;;;0.10;99.90;;;;;;4953057;29;20534;-90
2021/01/17 06:00:52;;;;;;;73.72;34.88;;;0.20;99.90;;;;;;4937951;29;20122;-89
2021/01/17 06:03:32;;;;;;;78.50;35.00;;;0.20;99.90;;;;;;4952818;28;20043;-90
2021/01/17 06:06:07;;;;;;;81.60;35.63;;;0.20;99.90;;;;;;4953673;28;20036;-89
2021/01/17 06:08:34;;;;;;;86.28;35.95;;;0.20;99.90;;;;;;4921415;29;20047;-89
2021/01/17 06:11:11;;;;;;;85.85;35.10;;;0.20;99.90;;;;;;4953084;29;20434;-89
2021/01/17 06:13:38;;;;;;;75.78;34.53;;;0.20;99.90;;;;;;4937250;29;20062;-89
2021/01/17 06:16:36;;;;;;;74.10;34.08;;;0.20;99.90;;;;;;4921800;29;20055;-90
2021/01/17 06:19:04;;;;;;;79.18;35.42;;;0.20;99.90;;;;;;4933926;29;20047;-90
2021/01/17 06:21:31;;;;;;;74.85;32.65;;;0.20;99.90;;;;;;4936864;29;20073;-90
2021/01/17 06:24:02;;;;;;;75.15;33.70;;;0.20;99.90;;;;;;4949552;29;20058;-90
2021/01/17 06:26:33;;;;;;;76.32;32.40;;;0.20;99.90;;;;;;4953541;29;20035;-89
2021/01/17 06:29:03;;;;;;;77.50;34.45;;;0.20;99.90;;;;;;4953319;29;20043;-90
2021/01/17 06:31:30;;;;;;;78.88;33.63;;;0.20;99.90;;;;;;4952246;29;20062;-89
2021/01/17 06:34:06;;;;;;;79.80;34.50;;;0.20;99.90;;;;;;4942257;29;20039;-91
2021/01/17 06:36:33;;;;;;;76.18;31.90;;;0.10;99.90;;;;;;4966846;28;20090;-90
2021/01/17 06:39:00;;;;;;;77.10;33.97;;;0.10;99.90;;;;;;4952725;29;20828;-89
2021/01/17 06:41:34;;;;;;;74.47;33.08;;;0.10;99.90;;;;;;4935992;29;20039;-90
2021/01/17 06:44:12;;;;;;;73.63;33.58;;;0.10;99.90;;;;;;4952502;29;20069;-89
2021/01/17 06:46:40;;;;;;;79.97;34.38;;;0.10;99.90;;;;;;4953595;29;20397;-89
2021/01/17 06:49:24;;;;;;;66.20;31.15;;;0.10;99.90;;;;;;4951226;29;20066;-87
2021/01/17 06:51:51;;;;;;;79.13;31.55;;;0.10;99.90;;;;;;4943196;28;20045;-88
2021/01/17 06:54:19;;;;;;;75.63;33.90;;;0.10;99.90;;;;;;4949064;29;20050;-91
2021/01/17 06:56:46;;;;;;;72.18;32.58;;;0.10;99.90;;;;;;4947781;29;20496;-89
2021/01/17 06:59:12;;;;;;;82.90;33.45;;;0.10;99.90;;;;;;4952061;28;20484;-88
2021/01/17 07:01:43;;;;;;;73.72;33.65;;;0.10;99.90;;;;;;4904536;29;20488;-88
2021/01/17 07:04:14;;;;;;;70.82;30.38;;;0.10;99.90;;;;;;4952250;29;20126;-88
2021/01/17 07:07:02;;;;;;;67.35;29.40;;;0.10;99.90;;;;;;4953076;29;20083;-88
2021/01/17 07:09:51;;;;;;;82.13;34.50;;;0.10;99.90;;;;;;4948586;29;20146;-88
2021/01/17 07:12:43;;;;;;;75.78;32.40;;;0.10;99.90;;;;;;4947398;29;20059;-92
2021/01/17 07:15:11;;;;;;;69.30;31.08;;;0.10;99.90;;;;;;4949906;29;20054;-89
2021/01/17 07:17:38;;;;;;;81.05;31.52;;;0.10;99.90;;;;;;4950693;28;20039;-88
2021/01/17 07:20:10;;;;;;;66.28;30.42;;;0.10;99.90;;;;;;4926065;29;20054;-88
2021/01/17 07:22:36;;;;;;;81.57;31.42;;;0.10;99.90;;;;;;4951566;29;20363;-90
2021/01/17 07:25:07;;;;;;;81.40;34.75;;;0.00;99.90;;;;;;4936502;29;20375;-88
2021/01/17 07:27:39;;;;;;;;;;;0.10;99.90;;;;;;4935598;29;20089;-89
2021/01/17 07:30:12;;;;;;;73.18;30.48;;;0.10;99.90;;;;;;4926220;29;19922;-89
2021/01/17 07:32:38;;;;;;;61.67;28.20;;;0.10;99.90;;;;;;4951647;29;20039;-89
2021/01/17 07:35:11;;;;;;;71.80;31.67;;;0.00;99.90;;;;;;4936484;29;20055;-90
2021/01/17 07:37:57;;;;;;;65.10;29.20;;;0.00;99.90;;;;;;4951876;29;20051;-90
2021/01/17 07:43:11;;;;;;;73.43;31.05;;;0.00;99.90;;;;;;4939098;28;20035;-89
2021/01/17 07:45:39;;;;;;;73.13;32.10;;;0.00;99.90;;;;;;4951613;29;20038;-89
2021/01/17 07:48:10;;;;;;;77.30;31.65;;;0.10;99.90;;;;;;4936067;29;20055;-89
2021/01/17 07:50:39;;;;;;;78.72;31.88;;;0.00;99.90;;;;;;4951462;29;20404;-89
2021/01/17 07:53:29;;;;;;;84.65;32.15;;;0.00;99.90;;;;;;4951708;29;20047;-89
2021/01/17 07:56:23;;;;;;;77.63;29.98;;;0.10;99.90;;;;;;4948167;28;20669;-88
2021/01/17 07:58:51;;;;;;;68.85;29.00;;;0.10;99.90;;;;;;4945967;29;20429;-89
2021/01/17 08:01:35;;;;;;;76.10;32.13;;;0.00;99.90;;;;;;4944398;29;20047;-89
2021/01/17 08:04:03;;;;;;;65.25;26.85;;;0.00;99.90;;;;;;4951866;29;20094;-89
2021/01/17 08:06:35;;;;;;;77.28;31.55;;;0.00;99.90;;;;;;4951752;29;20511;-90
2021/01/17 08:09:18;;;;;;;74.85;29.80;;;0.10;99.90;;;;;;4951778;28;20052;-89
2021/01/17 08:11:55;;;;;;;68.07;29.75;;;0.10;99.90;;;;;;4955147;29;20039;-91
2021/01/17 08:14:25;;;;;;;80.00;33.50;;;0.10;99.90;;;;;;4938451;29;20043;-91
2021/01/17 08:17:10;;;;;;;73.68;31.55;;;0.10;99.90;;;;;;4935619;29;20394;-90
2021/01/17 08:19:37;;;;;;;70.72;29.13;;;0.00;99.90;;;;;;4951029;29;20039;-92
2021/01/17 08:22:21;;;;;;;71.95;30.25;;;0.10;99.90;;;;;;4955077;29;20185;-89
2021/01/17 08:24:47;;;;;;;75.07;30.60;;;0.20;99.90;;;;;;4954369;29;20047;-89
2021/01/17 08:27:32;;;;;;;65.53;29.90;;;0.20;99.90;;;;;;4924161;29;20047;-88
2021/01/17 08:30:00;;;;;;;67.72;29.17;;;0.20;99.90;;;;;;4951734;29;20485;-89
2021/01/17 08:32:44;;;;;;;67.43;30.67;;;0.20;99.90;;;;;;4954584;29;20043;-92
2021/01/17 08:35:18;;;;;;;70.47;30.83;;;0.20;99.90;;;;;;4948701;29;20047;-89
2021/01/17 08:37:47;;;;;;;75.15;31.85;;;0.20;99.90;;;;;;4951554;29;20134;-89
2021/01/17 08:40:18;;;;;;;70.72;30.70;;;0.20;99.90;;;;;;4955681;29;20101;-90
2021/01/17 08:42:59;;;;;;;70.10;30.25;;;0.30;99.90;;;;;;4946019;28;20043;-89
2021/01/17 08:45:28;;;;;;;53.13;25.33;;;0.30;99.90;;;;;;4953794;29;20050;-88
2021/01/17 08:48:02;;;;;;;72.32;30.40;;;0.30;99.90;;;;;;4957102;29;20058;-89
2021/01/17 08:50:28;;;;;;;74.90;30.10;;;0.30;99.90;;;;;;4941216;29;20039;-88
2021/01/17 08:53:21;;;;;;;71.10;29.38;;;0.30;99.90;;;;;;4956816;29;20071;-89
2021/01/17 08:55:52;;;;;;;84.10;29.98;;;0.30;99.90;;;;;;4944925;29;20050;-88
2021/01/17 08:58:24;;;;;;;73.03;30.98;;;0.30;99.90;;;;;;4953722;28;20513;-88
2021/01/17 09:00:53;;;;;;;69.65;30.20;;;0.30;99.90;;;;;;4954163;29;20051;-88
2021/01/17 09:03:31;;;;;;;88.22;31.13;;;0.40;99.90;;;;;;4953342;29;20039;-88
2021/01/17 09:06:24;;;;;;;70.55;30.00;;;0.40;99.90;;;;;;4955648;29;20058;-89
2021/01/17 09:08:49;;;;;;;65.45;27.83;;;0.40;99.90;;;;;;4949269;29;20119;-89
2021/01/17 09:11:27;;;;;;;66.47;29.70;;;0.40;99.90;;;;;;4955846;29;20051;-89
2021/01/17 09:14:24;;;;;;;72.40;30.63;;;0.40;99.90;;;;;;4940091;29;20378;-88
2021/01/17 09:16:50;;;;;;;71.05;29.55;;;0.40;99.90;;;;;;4934186;29;20456;-90
2021/01/17 09:19:18;;;;;;;70.07;29.80;;;0.40;99.90;;;;;;4938886;29;20047;-90
2021/01/17 09:21:46;;;;;;;79.05;31.45;;;0.40;99.90;;;;;;4955591;28;20260;-93
2021/01/17 09:24:14;;;;;;;74.10;30.10;;;0.30;99.90;;;;;;4955820;29;20039;-92
2021/01/17 09:26:45;;;;;;;73.50;30.55;;;0.40;99.90;;;;;;4939817;29;20093;-95
2021/01/17 09:29:19;;;;;;;76.43;31.48;;;0.40;99.90;;;;;;4955652;29;20544;-94
2021/01/17 09:31:50;;;;;;;71.80;30.50;;;0.50;99.90;;;;;;4955520;29;20043;-92
2021/01/17 09:34:21;;;;;;;59.45;26.63;;;0.50;99.90;;;;;;4956495;29;20069;-94
2021/01/17 09:36:48;;;;;;;62.55;26.13;;;0.50;99.90;;;;;;4934597;29;20055;-95
2021/01/17 09:39:51;;;;;;;70.23;30.23;;;0.50;99.90;;;;;;4956604;29;20051;-92
2021/01/17 09:42:19;;;;;;;70.68;30.92;;;0.50;99.90;;;;;;4964943;28;20447;-93
2021/01/17 09:45:07;;;;;;;70.32;29.60;;;0.60;99.90;;;;;;4946988;29;20123;-93
2021/01/17 09:47:36;;;;;;;76.80;31.58;;;0.60;99.90;;;;;;4947839;29;20040;-95
2021/01/17 09:50:08;;;;;;;71.75;30.20;;;0.70;99.90;;;;;;4954656;29;20063;-93
2021/01/17 09:52:41;;;;;;;70.68;29.88;;;0.70;99.90;;;;;;4954748;28;20054;-94
2021/01/17 09:55:11;;;;;;;63.20;29.13;;;0.70;99.90;;;;;;4952189;29;20397;-92
2021/01/17 09:57:41;;;;;;;64.70;27.15;;;0.80;99.90;;;;;;4952453;29;20047;-91
2021/01/17 10:00:22;;;;;;;65.78;29.23;;;0.80;99.90;;;;;;4938382;29;20035;-91
2021/01/17 10:02:50;;;;;;;68.45;27.38;;;0.80;99.90;;;;;;4954331;29;20126;-91
2021/01/17 10:05:30;;;;;;;63.13;27.33;;;0.80;99.90;;;;;;4954559;28;20044;-92
2021/01/17 10:08:07;;;;;;;67.93;28.17;;;0.90;99.90;;;;;;4938496;29;20382;-90
2021/01/17 10:10:34;;;;;;;64.97;26.73;;;0.80;99.90;;;;;;4954812;29;20039;-91
2021/01/17 10:13:00;;;;;;;68.10;29.75;;;0.80;99.90;;;;;;4908008;29;20077;-89
2021/01/17 10:15:26;;;;;;;60.70;28.70;;;0.80;99.90;;;;;;4955663;29;20039;-90
2021/01/17 10:17:53;;;;;;;68.20;29.30;;;0.80;99.90;;;;;;4956059;28;20528;-92
2021/01/17 10:20:26;;;;;;;72.72;29.75;;;0.70;99.90;;;;;;4938121;29;20059;-90
2021/01/17 10:23:05;;;;;;;60.72;27.65;;;0.80;99.90;;;;;;4954767;29;20074;-89
2021/01/17 10:25:32;;;;;;;72.03;29.42;;;0.90;99.90;;;;;;4953871;29;20051;-89
2021/01/17 10:28:07;;;;;;;70.35;30.17;;;0.80;99.90;;;;;;4936859;29;20047;-88
2021/01/17 10:30:35;;;;;;;61.67;27.98;;;1.00;99.90;;;;;;4953577;29;20055;-90
2021/01/17 10:33:03;;;;;;;68.95;29.40;;;0.80;99.90;;;;;;4951432;28;20043;-92
2021/01/17 10:35:32;;;;;;;51.67;21.77;;;0.70;99.90;;;;;;4951007;29;20043;-89
2021/01/17 10:38:02;;;;;;;66.38;28.45;;;0.80;99.90;;;;;;4951024;29;20082;-89
2021/01/17 10:40:28;;;;;;;65.40;29.60;;;0.80;99.90;;;;;;4952160;29;20039;-89
2021/01/17 10:42:57;;;;;;;66.40;28.02;;;0.80;99.90;;;;;;4950668;29;20047;-90
2021/01/17 10:45:26;;;;;;;80.95;32.20;;;0.80;99.90;;;;;;4953599;29;20514;-90
2021/01/17 10:48:15;;;;;;;70.30;30.75;;;0.80;99.90;;;;;;4939954;28;20119;-92
2021/01/17 10:50:47;;;;;;;87.78;33.28;;;0.90;99.90;;;;;;4947097;29;20122;-91
2021/01/17 10:53:25;;;;;;;77.18;31.00;;;0.90;99.90;;;;;;4951356;29;20481;-92
2021/01/17 10:55:54;;;;;;;74.90;30.55;;;0.90;99.90;;;;;;4946673;29;20043;-90
2021/01/17 10:58:25;;;;;;;81.93;31.33;;;1.00;99.90;;;;;;4952563;29;20062;-91
2021/01/17 11:00:52;;;;;;;85.35;31.38;;;1.10;99.90;;;;;;4945198;28;20056;-90
2021/01/17 11:03:31;;;;;;;84.38;31.83;;;1.10;99.90;;;;;;4953649;28;20496;-92
2021/01/17 11:06:22;;;;;;;69.72;29.45;;;1.10;99.90;;;;;;4936015;29;20035;-87
2021/01/17 11:08:55;;;;;;;80.43;30.90;;;1.10;99.90;;;;;;4942305;29;20047;-90
2021/01/17 11:11:28;;;;;;;77.57;30.35;;;1.10;99.90;;;;;;4936731;29;20040;-89
2021/01/17 11:14:01;;;;;;;76.63;31.17;;;1.10;99.90;;;;;;4944912;28;20485;-89
2021/01/17 11:16:49;;;;;;;80.18;30.45;;;1.00;99.90;;;;;;4957608;28;20051;-89
2021/01/17 11:19:15;;;;;;;81.18;31.35;;;1.00;99.90;;;;;;4965066;28;20051;-89
2021/01/17 11:21:42;;;;;;;76.78;29.60;;;1.10;99.90;;;;;;4952026;28;20043;-92
2021/01/17 11:24:12;;;;;;;91.70;31.92;;;1.10;99.90;;;;;;4921919;29;20044;-93
2021/01/17 11:26:38;;;;;;;82.75;31.95;;;1.10;99.90;;;;;;4952306;29;20054;-92
2021/01/17 11:29:07;;;;;;;81.22;30.80;;;1.10;99.90;;;;;;4935987;29;20105;-89
2021/01/17 11:31:34;;;;;;;87.75;31.25;;;1.10;99.90;;;;;;4964109;28;20051;-91
2021/01/17 11:34:12;;;;;;;85.47;31.23;;;1.10;99.90;;;;;;4927825;29;20749;-91
2021/01/17 11:36:37;;;;;;;87.63;31.58;;;1.10;99.90;;;;;;4935219;29;20055;-91
2021/01/17 11:39:03;;;;;;;91.10;32.30;;;1.10;99.90;;;;;;4920027;29;20039;-90
2021/01/17 11:41:38;;;;;;;97.30;31.15;;;1.10;99.90;;;;;;4935685;29;20044;-90
2021/01/17 11:44:08;;;;;;;81.72;30.25;;;1.10;99.90;;;;;;4952738;28;20047;-90
2021/01/17 11:46:34;;;;;;;86.25;31.48;;;1.10;99.90;;;;;;4953632;29;20493;-88
2021/01/17 11:49:00;;;;;;;83.78;29.52;;;1.10;99.90;;;;;;4955466;29;20061;-91
2021/01/17 11:51:27;;;;;;;84.68;30.98;;;1.10;99.90;;;;;;4948030;29;20040;-88
2021/01/17 11:53:52;;;;;;;88.60;33.13;;;1.10;99.90;;;;;;4939229;29;20057;-89
2021/01/17 11:56:18;;;;;;;86.55;30.38;;;1.10;99.90;;;;;;4938677;29;20039;-88
2021/01/17 11:58:45;;;;;;;94.18;31.23;;;1.10;99.90;;;;;;4939634;29;20047;-93
2021/01/17 12:01:11;;;;;;;88.47;31.10;;;1.20;99.90;;;;;;4947598;29;20118;-90
2021/01/17 12:03:41;;;;;;;86.40;31.67;;;1.20;99.90;;;;;;4943202;29;20134;-89
2021/01/17 12:06:12;;;;;;;81.07;31.13;;;1.20;99.90;;;;;;4955200;28;20098;-89
2021/01/17 12:08:48;;;;;;;91.30;32.60;;;1.20;99.90;;;;;;4954036;29;20552;-89
2021/01/17 12:11:28;;;;;;;93.20;31.40;;;1.20;99.90;;;;;;4941800;29;20043;-88
2021/01/17 12:13:54;;;;;;;80.97;29.47;;;1.20;99.90;;;;;;4932781;29;20074;-89
2021/01/17 12:16:35;;;;;;;84.15;32.05;;;1.40;99.90;;;;;;4953464;28;20310;-88
2021/01/17 12:19:01;;;;;;;113.78;31.63;;;1.30;99.90;;;;;;4952330;29;20055;-89
2021/01/17 12:21:30;;;;;;;91.85;33.47;;;1.40;99.90;;;;;;4938229;29;20421;-89
2021/01/17 12:23:56;;;;;;;87.00;30.00;;;1.40;99.90;;;;;;4953289;29;20054;-88
2021/01/17 12:26:22;;;;;;;114.90;33.05;;;1.40;99.90;;;;;;4952331;29;20059;-85
2021/01/17 12:28:48;;;;;;;80.40;30.30;;;1.40;99.90;;;;;;4950274;29;20054;-87
2021/01/17 12:31:15;;;;;;;86.45;30.50;;;1.40;99.90;;;;;;4936456;29;20043;-87
2021/01/17 12:33:41;;;;;;;130.38;35.47;;;1.50;99.90;;;;;;4933325;29;20039;-89
2021/01/17 12:36:09;;;;;;;88.20;31.25;;;1.50;99.90;;;;;;4947931;29;20046;-91
2021/01/17 12:38:35;;;;;;;116.20;33.25;;;1.50;99.90;;;;;;4935695;29;20067;-87
2021/01/17 12:41:06;;;;;;;93.55;30.23;;;1.40;99.90;;;;;;4952289;29;20051;-88
2021/01/17 12:43:32;;;;;;;97.43;32.20;;;1.50;99.90;;;;;;4948174;29;20069;-89
2021/01/17 12:45:57;;;;;;;103.97;32.72;;;1.60;99.90;;;;;;4932563;29;20097;-86
2021/01/17 12:48:23;;;;;;;87.53;29.30;;;1.70;99.90;;;;;;4947406;28;20134;-87
2021/01/17 12:50:49;;;;;;;102.22;30.30;;;1.60;99.90;;;;;;4933782;29;20048;-88
2021/01/17 12:53:15;;;;;;;96.82;31.67;;;1.60;99.90;;;;;;4949640;29;20043;-88
2021/01/17 12:55:47;;;;;;;113.63;32.47;;;1.60;99.90;;;;;;4947824;28;20042;-84
2021/01/17 12:58:14;;;;;;;100.18;31.60;;;1.60;99.90;;;;;;4947454;29;20150;-85